createdAt,value
2022-08-21T00:00:44.334Z,13.00
2022-08-21T00:03:14.724Z,12.90
2022-08-21T00:05:47.879Z,12.80
2022-08-21T00:08:16.033Z,12.80
2022-08-21T00:10:45.588Z,12.80
2022-08-21T00:13:18.676Z,12.90
2022-08-21T00:15:47.424Z,13.00
2022-08-21T00:18:15.950Z,13.10
2022-08-21T00:20:48.088Z,13.10
2022-08-21T00:23:16.533Z,13.00
2022-08-21T00:25:46.468Z,12.90
2022-08-21T00:28:15.317Z,12.90
2022-08-21T00:30:44.409Z,12.90
2022-08-21T00:33:13.412Z,12.80
2022-08-21T00:35:44.169Z,12.90
2022-08-21T00:38:14.124Z,12.90
2022-08-21T00:40:47.976Z,12.90
2022-08-21T00:43:21.557Z,12.80
2022-08-21T00:45:50.580Z,12.70
2022-08-21T00:48:18.902Z,12.60
2022-08-21T00:50:52.736Z,12.60
2022-08-21T00:53:23.626Z,12.80
2022-08-21T00:55:52.733Z,12.90
2022-08-21T00:58:25.657Z,12.90
2022-08-21T01:00:54.402Z,12.90
2022-08-21T01:03:26.228Z,13.00
2022-08-21T01:05:55.073Z,13.10
2022-08-21T01:08:25.725Z,13.20
2022-08-21T01:10:55.397Z,13.10
2022-08-21T01:13:25.459Z,13.10
2022-08-21T01:15:56.991Z,13.10
2022-08-21T01:18:26.340Z,13.20
2022-08-21T01:21:08.397Z,13.30
2022-08-21T01:23:38.780Z,13.30
2022-08-21T01:26:08.522Z,13.30
2022-08-21T01:28:43.746Z,13.40
2022-08-21T01:31:16.589Z,13.30
2022-08-21T01:33:46.826Z,13.50
2022-08-21T01:36:16.400Z,13.50
2022-08-21T01:38:44.637Z,13.40
2022-08-21T01:41:12.889Z,13.40
2022-08-21T01:43:41.383Z,13.40
2022-08-21T01:46:09.686Z,13.30
2022-08-21T01:48:38.476Z,13.20
2022-08-21T01:51:08.020Z,13.10
2022-08-21T01:53:37.982Z,13.00
2022-08-21T01:56:12.121Z,12.80
2022-08-21T01:58:40.874Z,12.70
2022-08-21T02:01:10.524Z,12.70
2022-08-21T02:03:39.522Z,12.70
2022-08-21T02:06:09.445Z,12.90
2022-08-21T02:08:40.309Z,13.20
2022-08-21T02:11:08.654Z,13.30
2022-08-21T02:13:36.923Z,13.30
2022-08-21T02:16:05.616Z,13.20
2022-08-21T02:18:34.359Z,13.20
2022-08-21T02:21:02.789Z,13.20
2022-08-21T02:23:31.185Z,13.30
2022-08-21T02:26:01.750Z,13.30
2022-08-21T02:28:30.352Z,13.30
2022-08-21T02:30:59.152Z,13.30
2022-08-21T02:33:28.059Z,13.20
2022-08-21T02:35:57.329Z,13.30
2022-08-21T02:38:29.372Z,13.30
2022-08-21T02:40:58.509Z,13.20
2022-08-21T02:43:29.555Z,13.20
2022-08-21T02:45:59.458Z,13.30
2022-08-21T02:48:30.198Z,13.30
2022-08-21T02:51:00.916Z,13.40
2022-08-21T02:53:30.432Z,13.40
2022-08-21T02:56:00.622Z,13.40
2022-08-21T02:58:32.517Z,13.50
2022-08-21T03:01:00.790Z,13.50
2022-08-21T03:03:30.175Z,13.50
2022-08-21T03:05:58.757Z,13.60
2022-08-21T03:08:27.750Z,13.60
2022-08-21T03:10:56.748Z,13.70
2022-08-21T03:13:25.513Z,13.70
2022-08-21T03:15:55.349Z,13.80
2022-08-21T03:18:27.061Z,13.80
2022-08-21T03:20:55.245Z,13.80
2022-08-21T03:23:23.787Z,13.90
2022-08-21T03:25:52.073Z,13.90
2022-08-21T03:28:24.137Z,13.90
2022-08-21T03:30:55.031Z,14.00
2022-08-21T03:33:23.729Z,14.00
2022-08-21T03:36:01.615Z,13.90
2022-08-21T03:38:32.087Z,14.00
2022-08-21T03:41:00.969Z,14.00
2022-08-21T03:43:33.074Z,13.90
2022-08-21T03:46:06.490Z,13.90
2022-08-21T03:48:36.570Z,13.80
2022-08-21T03:51:05.744Z,13.90
2022-08-21T03:53:34.999Z,13.80
2022-08-21T03:56:03.160Z,13.80
2022-08-21T03:58:31.883Z,13.80
2022-08-21T04:01:02.494Z,13.80
2022-08-21T04:03:32.335Z,13.80
2022-08-21T04:06:00.521Z,13.70
2022-08-21T04:08:28.838Z,13.70
2022-08-21T04:11:00.199Z,13.70
2022-08-21T04:13:29.895Z,13.70
2022-08-21T04:15:59.078Z,13.70
2022-08-21T04:18:27.429Z,13.70
2022-08-21T04:20:59.594Z,13.60
2022-08-21T04:23:27.841Z,13.60
2022-08-21T04:25:58.227Z,13.60
2022-08-21T04:28:29.186Z,13.50
2022-08-21T04:30:58.871Z,13.50
2022-08-21T04:33:28.174Z,13.50
2022-08-21T04:35:57.713Z,13.50
2022-08-21T04:38:25.920Z,13.50
2022-08-21T04:40:56.288Z,13.60
2022-08-21T04:43:30.384Z,13.60
2022-08-21T04:45:58.567Z,13.60
2022-08-21T04:48:26.757Z,13.50
2022-08-21T04:51:01.794Z,13.50
2022-08-21T04:53:35.858Z,13.60
2022-08-21T04:56:09.575Z,13.60
2022-08-21T04:58:40.563Z,13.60
2022-08-21T05:01:13.727Z,13.60
2022-08-21T05:03:42.642Z,13.70
2022-08-21T05:06:14.085Z,13.80
2022-08-21T05:08:44.593Z,13.80
2022-08-21T05:11:13.091Z,13.90
2022-08-21T05:13:42.493Z,13.90
2022-08-21T05:16:11.929Z,14.00
2022-08-21T05:18:41.380Z,14.10
2022-08-21T05:21:11.388Z,14.20
2022-08-21T05:23:40.567Z,14.20
2022-08-21T05:26:08.891Z,14.40
2022-08-21T05:28:46.472Z,14.50
2022-08-21T05:31:15.132Z,14.60
2022-08-21T05:33:44.021Z,14.70
2022-08-21T05:36:13.679Z,14.80
2022-08-21T05:38:41.953Z,14.90
2022-08-21T05:41:10.260Z,15.10
2022-08-21T05:43:38.520Z,15.20
2022-08-21T05:46:08.681Z,15.30
2022-08-21T05:48:38.187Z,15.40
2022-08-21T05:51:09.145Z,15.50
2022-08-21T05:53:39.578Z,15.60
2022-08-21T05:56:07.911Z,15.70
2022-08-21T05:58:36.747Z,15.80
2022-08-21T06:01:05.993Z,15.90
2022-08-21T06:03:38.006Z,16.10
2022-08-21T06:06:06.509Z,16.20
2022-08-21T06:08:35.276Z,16.20
2022-08-21T06:11:06.095Z,16.40
2022-08-21T06:13:34.674Z,16.50
2022-08-21T06:16:05.426Z,16.60
2022-08-21T06:18:33.692Z,16.70
2022-08-21T06:21:02.415Z,16.90
2022-08-21T06:23:32.966Z,17.00
2022-08-21T06:26:02.203Z,17.00
2022-08-21T06:28:31.801Z,17.10
2022-08-21T06:30:59.994Z,17.20
2022-08-21T06:33:32.547Z,17.40
2022-08-21T06:36:01.076Z,17.60
2022-08-21T06:38:29.453Z,17.80
2022-08-21T06:40:57.931Z,17.90
2022-08-21T06:43:39.153Z,18.00
2022-08-21T06:46:11.275Z,18.10
2022-08-21T06:48:39.422Z,18.40
2022-08-21T06:51:07.611Z,18.50
2022-08-21T06:53:35.790Z,18.60
2022-08-21T06:56:04.489Z,18.70
2022-08-21T06:58:33.130Z,18.80
2022-08-21T07:01:01.628Z,19.10
2022-08-21T07:03:34.906Z,19.20
2022-08-21T07:06:03.319Z,19.30
2022-08-21T07:08:31.675Z,19.40
2022-08-21T07:11:02.228Z,19.60
2022-08-21T07:13:31.375Z,19.80
2022-08-21T07:16:03.857Z,20.00
2022-08-21T07:18:33.859Z,20.10
2022-08-21T07:21:06.393Z,20.20
2022-08-21T07:23:37.154Z,20.20
2022-08-21T07:26:05.651Z,20.60
2022-08-21T07:28:35.269Z,20.80
2022-08-21T07:31:05.235Z,21.20
2022-08-21T07:33:37.212Z,21.50
2022-08-21T07:36:06.548Z,21.50
2022-08-21T07:38:34.943Z,21.60
2022-08-21T07:41:03.979Z,21.60
2022-08-21T07:43:32.247Z,21.60
2022-08-21T07:46:01.269Z,21.40
2022-08-21T07:48:30.619Z,21.30
2022-08-21T07:51:05.061Z,21.20
2022-08-21T07:53:33.714Z,21.10
2022-08-21T07:56:02.067Z,21.20
2022-08-21T07:58:30.346Z,21.30
2022-08-21T08:00:58.624Z,21.50
2022-08-21T08:03:28.901Z,21.60
2022-08-21T08:05:59.420Z,21.80
2022-08-21T08:08:29.389Z,22.00
2022-08-21T08:10:59.804Z,22.10
2022-08-21T08:13:28.226Z,22.20
2022-08-21T08:15:56.446Z,22.40
2022-08-21T08:18:24.905Z,22.30
2022-08-21T08:20:53.287Z,22.20
2022-08-21T08:23:24.037Z,22.00
2022-08-21T08:25:52.372Z,22.10
2022-08-21T08:28:20.551Z,22.40
2022-08-21T08:30:50.206Z,22.80
2022-08-21T08:33:19.577Z,22.80
2022-08-21T08:35:50.910Z,22.50
2022-08-21T08:38:24.560Z,22.40
2022-08-21T08:41:01.801Z,22.50
2022-08-21T08:43:31.883Z,22.80
2022-08-21T08:46:03.182Z,23.00
2022-08-21T08:48:52.763Z,23.20
2022-08-21T08:51:31.645Z,23.30
2022-08-21T08:54:05.480Z,23.30
2022-08-21T08:56:38.882Z,23.30
2022-08-21T08:59:15.670Z,23.40
2022-08-21T09:01:46.417Z,23.60
2022-08-21T09:04:16.624Z,23.80
2022-08-21T09:07:09.669Z,24.00
2022-08-21T09:09:56.362Z,24.30
2022-08-21T09:12:41.042Z,24.50
2022-08-21T09:15:20.357Z,24.00
2022-08-21T09:18:28.467Z,23.60
2022-08-21T09:21:10.606Z,23.30
2022-08-21T09:23:49.222Z,23.00
2022-08-21T09:26:19.002Z,23.10
2022-08-21T09:28:54.921Z,23.20
2022-08-21T09:31:26.659Z,23.50
2022-08-21T09:34:01.023Z,23.20
2022-08-21T09:36:37.948Z,23.10
2022-08-21T09:39:06.436Z,23.20
2022-08-21T09:41:37.473Z,23.20
2022-08-21T09:44:09.545Z,23.40
2022-08-21T09:46:37.725Z,23.60
2022-08-21T09:49:06.917Z,23.40
2022-08-21T09:51:53.534Z,23.50
2022-08-21T09:54:26.931Z,23.50
2022-08-21T09:57:15.788Z,23.80
2022-08-21T09:59:46.993Z,24.20
2022-08-21T10:02:34.690Z,24.50
2022-08-21T10:05:05.866Z,24.90
2022-08-21T10:07:38.428Z,25.10
2022-08-21T10:10:10.646Z,25.40
2022-08-21T10:12:50.512Z,25.70
2022-08-21T10:15:25.739Z,25.80
2022-08-21T10:18:01.570Z,25.70
2022-08-21T10:20:38.790Z,25.90
2022-08-21T10:23:22.864Z,26.10
2022-08-21T10:26:13.474Z,26.10
2022-08-21T10:28:49.170Z,26.40
2022-08-21T10:31:34.586Z,26.70
2022-08-21T10:34:15.547Z,26.80
2022-08-21T10:36:52.034Z,27.20
2022-08-21T10:39:36.034Z,27.30
2022-08-21T10:42:29.964Z,27.40
2022-08-21T10:45:17.038Z,27.20
2022-08-21T10:47:54.860Z,26.90
2022-08-21T10:50:33.689Z,26.90
2022-08-21T10:53:21.775Z,26.50
2022-08-21T10:55:56.927Z,26.50
2022-08-21T10:58:30.595Z,26.90
2022-08-21T11:01:06.004Z,27.00
2022-08-21T11:03:41.470Z,26.90
2022-08-21T11:06:16.988Z,27.00
2022-08-21T11:08:47.964Z,26.50
2022-08-21T11:11:22.673Z,26.30
2022-08-21T11:13:55.772Z,26.40
2022-08-21T11:16:33.686Z,26.50
2022-08-21T11:19:11.267Z,26.40
2022-08-21T11:21:44.710Z,26.50
2022-08-21T11:24:26.515Z,26.60
2022-08-21T11:27:01.717Z,26.50
2022-08-21T11:29:33.314Z,26.30
2022-08-21T11:32:24.310Z,26.10
2022-08-21T11:35:04.604Z,25.90
2022-08-21T11:37:47.593Z,25.60
2022-08-21T11:40:41.712Z,25.60
2022-08-21T11:43:17.615Z,25.30
2022-08-21T11:45:50.885Z,25.50
2022-08-21T11:48:42.583Z,26.30
2022-08-21T11:51:17.994Z,27.40
2022-08-21T11:53:54.275Z,28.20
2022-08-21T11:56:28.178Z,28.40
2022-08-21T11:59:03.808Z,28.20
2022-08-21T12:01:37.331Z,27.70
2022-08-21T12:04:09.683Z,26.90
2022-08-21T12:06:40.783Z,26.50
2022-08-21T12:09:11.051Z,26.40
2022-08-21T12:11:49.588Z,26.20
2022-08-21T12:14:20.061Z,26.20
2022-08-21T12:16:50.817Z,26.00
2022-08-21T12:19:32.693Z,25.90
2022-08-21T12:22:12.849Z,25.90
2022-08-21T12:24:43.783Z,26.10
2022-08-21T12:27:27.077Z,26.10
2022-08-21T12:29:58.443Z,25.90
2022-08-21T12:32:29.818Z,26.20
2022-08-21T12:35:03.750Z,26.20
2022-08-21T12:37:42.857Z,26.30
2022-08-21T12:40:20.498Z,26.90
2022-08-21T12:42:58.881Z,26.90
2022-08-21T12:45:32.931Z,26.60
2022-08-21T12:48:06.887Z,26.80
2022-08-21T12:50:40.250Z,26.70
2022-08-21T12:53:20.379Z,26.70
2022-08-21T12:55:49.792Z,26.60
2022-08-21T12:58:21.328Z,26.50
2022-08-21T13:00:52.400Z,26.50
2022-08-21T13:03:21.369Z,26.20
2022-08-21T13:05:52.355Z,26.20
2022-08-21T13:08:24.284Z,26.30
2022-08-21T13:11:00.158Z,26.90
2022-08-21T13:13:46.862Z,27.50
2022-08-21T13:16:20.492Z,28.10
2022-08-21T13:18:58.734Z,28.40
2022-08-21T13:21:31.742Z,28.30
2022-08-21T13:24:41.180Z,28.50
2022-08-21T13:27:22.237Z,28.30
2022-08-21T13:29:54.161Z,28.20
2022-08-21T13:32:33.151Z,28.30
2022-08-21T13:35:09.769Z,28.20
2022-08-21T13:37:40.518Z,27.60
2022-08-21T13:40:14.506Z,27.30
2022-08-21T13:42:44.941Z,27.00
2022-08-21T13:45:21.093Z,26.80
2022-08-21T13:47:50.038Z,26.70
2022-08-21T13:50:23.597Z,27.30
2022-08-21T13:52:59.046Z,27.50
2022-08-21T13:55:38.446Z,27.30
2022-08-21T13:58:07.457Z,27.50
2022-08-21T14:00:45.221Z,27.10
2022-08-21T14:03:25.209Z,26.90
2022-08-21T14:05:53.356Z,26.60
2022-08-21T14:08:30.014Z,26.50
2022-08-21T14:11:01.691Z,26.40
2022-08-21T14:13:39.864Z,26.20
2022-08-21T14:16:18.412Z,26.10
2022-08-21T14:18:49.064Z,25.90
2022-08-21T14:21:27.429Z,25.60
2022-08-21T14:24:04.688Z,25.30
2022-08-21T14:26:36.698Z,25.20
2022-08-21T14:29:10.538Z,25.20
2022-08-21T14:31:42.456Z,25.10
2022-08-21T14:34:19.215Z,25.20
2022-08-21T14:36:48.961Z,25.40
2022-08-21T14:39:17.239Z,25.60
2022-08-21T14:41:49.356Z,25.70
2022-08-21T14:44:18.901Z,25.80
2022-08-21T14:46:56.113Z,25.70
2022-08-21T14:49:28.484Z,25.70
2022-08-21T14:51:58.525Z,25.70
2022-08-21T14:54:31.199Z,25.70
2022-08-21T14:57:04.392Z,25.80
2022-08-21T14:59:34.153Z,25.80
2022-08-21T15:02:04.130Z,25.80
2022-08-21T15:04:32.400Z,25.60
2022-08-21T15:07:00.616Z,25.60
2022-08-21T15:09:29.085Z,25.50
2022-08-21T15:12:00.547Z,25.50
2022-08-21T15:14:31.787Z,25.40
2022-08-21T15:17:00.351Z,25.00
2022-08-21T15:19:30.353Z,24.40
2022-08-21T15:21:58.572Z,23.90
2022-08-21T15:24:26.958Z,23.50
2022-08-21T15:26:55.947Z,23.60
2022-08-21T15:29:24.406Z,23.70
2022-08-21T15:32:04.022Z,23.90
2022-08-21T15:34:33.491Z,24.40
2022-08-21T15:37:01.829Z,24.70
2022-08-21T15:39:31.525Z,24.70
2022-08-21T15:42:02.628Z,24.50
2022-08-21T15:44:40.244Z,24.10
2022-08-21T15:47:13.960Z,23.80
2022-08-21T15:49:46.319Z,23.70
2022-08-21T15:52:15.132Z,23.40
2022-08-21T15:54:46.435Z,23.30
2022-08-21T15:57:17.331Z,23.30
2022-08-21T15:59:49.307Z,23.20
2022-08-21T16:02:24.042Z,23.20
2022-08-21T16:04:52.409Z,23.10
2022-08-21T16:07:20.710Z,23.00
2022-08-21T16:09:48.937Z,22.80
2022-08-21T16:12:23.238Z,22.90
2022-08-21T16:14:52.994Z,22.90
2022-08-21T16:17:26.346Z,23.00
2022-08-21T16:19:54.571Z,22.90
2022-08-21T16:22:39.872Z,22.80
2022-08-21T16:25:14.539Z,22.80
2022-08-21T16:27:46.850Z,22.70
2022-08-21T16:30:17.235Z,22.60
2022-08-21T16:32:48.750Z,22.50
2022-08-21T16:35:19.594Z,22.50
2022-08-21T16:37:52.988Z,22.30
2022-08-21T16:40:24.060Z,22.30
2022-08-21T16:42:52.493Z,22.30
2022-08-21T16:45:22.171Z,22.00
2022-08-21T16:47:52.487Z,21.90
2022-08-21T16:50:24.185Z,21.80
2022-08-21T16:52:52.835Z,21.80
2022-08-21T16:55:21.083Z,21.80
2022-08-21T16:57:49.345Z,21.80
2022-08-21T17:00:18.530Z,21.70
2022-08-21T17:02:49.306Z,21.70
2022-08-21T17:05:20.143Z,21.70
2022-08-21T17:07:48.667Z,21.70
2022-08-21T17:10:19.127Z,21.60
2022-08-21T17:12:57.478Z,21.50
2022-08-21T17:15:33.196Z,21.40
2022-08-21T17:18:02.082Z,21.30
2022-08-21T17:20:32.289Z,21.30
2022-08-21T17:23:00.740Z,21.30
2022-08-21T17:25:29.768Z,21.20
2022-08-21T17:27:58.400Z,21.20
2022-08-21T17:30:26.712Z,21.20
2022-08-21T17:32:58.947Z,21.20
2022-08-21T17:35:27.346Z,21.10
2022-08-21T17:37:57.022Z,21.10
2022-08-21T17:40:25.725Z,21.10
2022-08-21T17:43:03.312Z,21.10
2022-08-21T17:45:31.782Z,21.10
2022-08-21T17:48:05.793Z,21.00
2022-08-21T17:50:34.128Z,21.00
2022-08-21T17:53:03.998Z,20.90
2022-08-21T17:55:32.754Z,20.80
2022-08-21T17:58:02.218Z,20.80
2022-08-21T18:00:31.486Z,20.80
2022-08-21T18:03:03.194Z,20.70
2022-08-21T18:05:31.823Z,20.60
2022-08-21T18:08:00.487Z,20.50
2022-08-21T18:10:30.702Z,20.40
2022-08-21T18:13:00.128Z,20.30
2022-08-21T18:15:29.727Z,20.20
2022-08-21T18:17:58.101Z,20.10
2022-08-21T18:20:26.396Z,20.10
2022-08-21T18:22:54.654Z,20.00
2022-08-21T18:25:23.182Z,19.90
2022-08-21T18:27:53.094Z,19.80
2022-08-21T18:30:24.220Z,19.80
2022-08-21T18:32:54.933Z,19.70
2022-08-21T18:35:24.291Z,19.70
2022-08-21T18:37:52.591Z,19.60
2022-08-21T18:40:21.434Z,19.50
2022-08-21T18:42:55.746Z,19.40
2022-08-21T18:45:28.711Z,19.40
2022-08-21T18:47:59.195Z,19.40
2022-08-21T18:50:29.372Z,19.30
2022-08-21T18:52:57.935Z,19.20
2022-08-21T18:55:28.027Z,19.20
2022-08-21T18:57:57.268Z,19.10
2022-08-21T19:00:30.480Z,19.00
2022-08-21T19:02:59.696Z,19.00
2022-08-21T19:05:28.247Z,19.00
2022-08-21T19:07:57.259Z,18.90
2022-08-21T19:10:29.478Z,18.90
2022-08-21T19:13:01.744Z,18.90
2022-08-21T19:15:33.300Z,18.80
2022-08-21T19:18:01.907Z,18.80
2022-08-21T19:20:36.587Z,18.70
2022-08-21T19:23:07.792Z,18.70
2022-08-21T19:25:37.085Z,18.60
2022-08-21T19:28:11.625Z,18.60
2022-08-21T19:30:45.778Z,18.60
2022-08-21T19:33:35.341Z,18.60
2022-08-21T19:36:04.308Z,18.50
2022-08-21T19:38:32.983Z,18.50
2022-08-21T19:41:02.131Z,18.40
2022-08-21T19:43:33.784Z,18.40
2022-08-21T19:46:03.364Z,18.30
2022-08-21T19:48:31.655Z,18.30
2022-08-21T19:51:00.117Z,18.30
2022-08-21T19:53:28.337Z,18.20
2022-08-21T19:55:56.670Z,18.20
2022-08-21T19:58:34.590Z,18.20
2022-08-21T20:01:11.503Z,18.20
2022-08-21T20:03:45.506Z,18.20
2022-08-21T20:06:26.299Z,18.20
2022-08-21T20:09:29.148Z,18.20
2022-08-21T20:13:08.825Z,18.20
2022-08-21T20:16:47.354Z,18.20
2022-08-21T20:19:30.921Z,18.10
2022-08-21T20:39:19.750Z,18.10
2022-08-21T20:41:54.600Z,18.10
2022-08-21T20:44:23.551Z,18.10
2022-08-21T20:46:56.040Z,18.00
2022-08-21T20:49:29.089Z,18.00
2022-08-21T20:52:00.059Z,18.00
2022-08-21T20:54:33.440Z,18.00
2022-08-21T20:57:06.762Z,18.00
2022-08-21T20:59:49.959Z,17.90
2022-08-21T21:02:28.896Z,17.90
2022-08-21T21:05:01.904Z,17.80
2022-08-21T21:07:39.634Z,17.80
2022-08-21T21:10:13.439Z,17.90
2022-08-21T21:12:52.747Z,17.80
2022-08-21T21:15:27.905Z,17.80
2022-08-21T21:18:05.334Z,17.70
2022-08-21T21:20:40.200Z,17.70
2022-08-21T21:23:24.537Z,17.70
2022-08-21T21:26:00.769Z,17.70
2022-08-21T21:28:37.697Z,17.70
2022-08-21T21:31:06.168Z,17.60
2022-08-21T21:33:34.624Z,17.60
2022-08-21T21:36:13.471Z,17.60
2022-08-21T21:38:51.669Z,17.60
2022-08-21T21:41:33.643Z,17.60
2022-08-21T21:44:16.622Z,17.60
2022-08-21T21:46:55.084Z,17.60
2022-08-21T21:49:42.875Z,17.60
2022-08-21T21:52:30.692Z,17.50
2022-08-21T21:55:06.439Z,17.50
2022-08-21T21:58:04.479Z,17.50
2022-08-21T22:03:26.367Z,17.50
2022-08-21T22:06:01.245Z,17.50
2022-08-21T22:08:40.508Z,17.60
2022-08-21T22:17:27.921Z,17.30
2022-08-21T22:19:59.529Z,17.20
2022-08-21T22:22:30.315Z,17.20
2022-08-21T22:25:02.310Z,17.20
2022-08-21T22:27:35.353Z,17.20
2022-08-21T22:30:07.569Z,17.20
2022-08-21T22:32:39.917Z,17.20
2022-08-21T22:35:19.368Z,17.20
2022-08-21T22:37:51.633Z,17.30
2022-08-21T22:40:26.312Z,17.20
2022-08-21T22:43:07.737Z,17.20
2022-08-21T22:45:57.167Z,17.10
2022-08-21T22:48:28.506Z,17.20
2022-08-21T22:51:05.163Z,17.10
2022-08-21T22:53:37.550Z,17.10
2022-08-21T22:56:07.579Z,17.10
2022-08-21T23:01:37.292Z,17.10
2022-08-21T23:04:17.678Z,17.10
2022-08-21T23:06:52.665Z,17.10
2022-08-21T23:09:30.046Z,17.00
2022-08-21T23:12:00.946Z,17.00
2022-08-21T23:14:30.020Z,17.10
2022-08-21T23:17:02.644Z,17.00
2022-08-21T23:19:49.599Z,17.00
2022-08-21T23:22:40.030Z,17.00
2022-08-21T23:25:26.524Z,17.10
2022-08-21T23:28:04.053Z,17.10
2022-08-21T23:30:42.929Z,17.10
2022-08-21T23:33:24.165Z,17.00
2022-08-21T23:36:26.277Z,17.00
2022-08-21T23:39:20.461Z,17.00
2022-08-21T23:41:56.030Z,17.00
2022-08-21T23:44:42.557Z,17.00
2022-08-21T23:47:26.882Z,17.00
2022-08-21T23:50:14.113Z,17.00
2022-08-21T23:53:01.656Z,17.00
2022-08-21T23:55:58.073Z,17.10
2022-08-21T23:58:35.093Z,17.10
